createdAt,value
2022-08-26T00:00:52.161Z,18.66
2022-08-26T00:03:20.918Z,18.71
2022-08-26T00:05:51.090Z,18.70
2022-08-26T00:08:22.804Z,18.38
2022-08-26T00:10:51.831Z,18.68
2022-08-26T00:13:20.364Z,18.67
2022-08-26T00:15:50.472Z,18.68
2022-08-26T00:18:22.261Z,18.65
2022-08-26T00:20:51.702Z,18.63
2022-08-26T00:23:24.056Z,18.61
2022-08-26T00:25:53.386Z,18.55
2022-08-26T00:28:23.117Z,18.40
2022-08-26T00:30:52.839Z,18.48
2022-08-26T00:33:22.326Z,18.47
2022-08-26T00:35:51.564Z,18.46
2022-08-26T00:38:22.945Z,18.25
2022-08-26T00:40:55.265Z,18.46
2022-08-26T00:43:25.884Z,18.46
2022-08-26T00:46:00.807Z,18.41
2022-08-26T00:48:34.089Z,18.39
2022-08-26T00:51:08.284Z,18.32
2022-08-26T00:53:47.421Z,18.27
2022-08-26T00:56:22.144Z,18.23
2022-08-26T00:58:52.704Z,18.17
2022-08-26T01:01:23.012Z,18.13
2022-08-26T01:03:51.753Z,18.13
2022-08-26T01:06:21.675Z,17.90
2022-08-26T01:08:52.468Z,18.18
2022-08-26T01:11:24.962Z,17.62
2022-08-26T01:13:56.103Z,17.51
2022-08-26T01:16:26.184Z,17.58
2022-08-26T01:18:58.445Z,18.13
2022-08-26T01:21:30.535Z,18.14
2022-08-26T01:24:01.570Z,18.16
2022-08-26T01:26:34.664Z,17.71
2022-08-26T01:29:07.103Z,18.27
2022-08-26T01:31:42.228Z,18.34
2022-08-26T01:34:18.162Z,18.42
2022-08-26T01:36:51.658Z,18.52
2022-08-26T01:39:22.191Z,18.61
2022-08-26T01:41:53.661Z,18.50
2022-08-26T01:44:27.622Z,18.76
2022-08-26T01:46:59.001Z,18.82
2022-08-26T01:49:29.084Z,18.90
2022-08-26T01:52:01.033Z,18.95
2022-08-26T01:54:30.980Z,19.00
2022-08-26T01:56:59.877Z,19.04
2022-08-26T01:59:29.081Z,19.09
2022-08-26T02:01:58.083Z,19.13
2022-08-26T02:04:30.689Z,19.17
2022-08-26T02:06:59.554Z,18.94
2022-08-26T02:09:28.062Z,19.23
2022-08-26T02:12:01.753Z,19.26
2022-08-26T02:14:34.693Z,19.31
2022-08-26T02:17:04.488Z,19.21
2022-08-26T02:19:38.861Z,19.35
2022-08-26T02:22:15.775Z,19.39
2022-08-26T02:24:51.560Z,19.31
2022-08-26T02:27:28.134Z,19.25
2022-08-26T02:30:04.971Z,19.51
2022-08-26T02:32:34.119Z,19.54
2022-08-26T02:35:03.827Z,19.57
2022-08-26T02:37:34.036Z,19.60
2022-08-26T02:40:03.428Z,19.39
2022-08-26T02:42:33.429Z,19.65
2022-08-26T02:45:02.181Z,19.36
2022-08-26T02:47:31.421Z,19.24
2022-08-26T02:50:02.055Z,19.67
2022-08-26T02:52:30.634Z,19.67
2022-08-26T02:55:00.872Z,19.70
2022-08-26T02:57:31.489Z,19.70
2022-08-26T03:00:02.127Z,19.73
2022-08-26T03:02:31.397Z,19.73
2022-08-26T03:05:02.024Z,19.74
2022-08-26T03:07:31.858Z,19.75
2022-08-26T03:10:01.029Z,19.75
2022-08-26T03:12:29.513Z,19.63
2022-08-26T03:14:58.765Z,19.77
2022-08-26T03:17:28.817Z,19.79
2022-08-26T03:19:57.492Z,19.62
2022-08-26T03:22:27.201Z,19.60
2022-08-26T03:24:56.386Z,19.76
2022-08-26T03:27:24.897Z,19.28
2022-08-26T03:30:11.778Z,19.72
2022-08-26T03:32:42.540Z,19.68
2022-08-26T03:35:12.311Z,19.34
2022-08-26T03:37:41.312Z,19.65
2022-08-26T03:40:11.750Z,19.60
2022-08-26T03:42:45.304Z,19.53
2022-08-26T03:45:15.509Z,19.50
2022-08-26T03:47:46.651Z,19.46
2022-08-26T03:50:22.591Z,19.48
2022-08-26T03:52:52.413Z,19.43
2022-08-26T03:55:23.754Z,19.38
2022-08-26T03:57:52.405Z,19.33
2022-08-26T04:00:21.990Z,19.27
2022-08-26T04:02:53.595Z,19.24
2022-08-26T04:05:23.862Z,19.22
2022-08-26T04:07:53.213Z,19.07
2022-08-26T04:10:28.626Z,18.88
2022-08-26T04:12:59.384Z,18.81
2022-08-26T04:15:28.703Z,19.03
2022-08-26T04:17:58.616Z,19.00
2022-08-26T04:20:27.463Z,17.95
2022-08-26T04:22:56.586Z,18.95
2022-08-26T04:25:25.644Z,18.78
2022-08-26T04:27:54.120Z,18.92
2022-08-26T04:30:22.735Z,18.88
2022-08-26T04:32:51.465Z,18.84
2022-08-26T04:35:25.788Z,18.82
2022-08-26T04:37:55.617Z,18.78
2022-08-26T04:40:24.664Z,18.77
2022-08-26T04:42:54.625Z,18.47
2022-08-26T04:45:23.261Z,17.54
2022-08-26T04:47:56.518Z,18.69
2022-08-26T04:50:27.233Z,18.68
2022-08-26T04:52:57.029Z,17.43
2022-08-26T04:55:39.765Z,18.63
2022-08-26T04:58:11.506Z,18.49
2022-08-26T05:00:40.608Z,18.58
2022-08-26T05:03:09.397Z,17.36
2022-08-26T05:05:42.663Z,18.60
2022-08-26T05:08:12.579Z,17.38
2022-08-26T05:10:42.392Z,18.62
2022-08-26T05:13:15.359Z,18.63
2022-08-26T05:15:45.365Z,18.66
2022-08-26T05:18:15.192Z,18.05
2022-08-26T05:20:47.918Z,18.70
2022-08-26T05:23:16.578Z,18.74
2022-08-26T05:25:49.315Z,18.78
2022-08-26T05:28:19.845Z,18.83
2022-08-26T05:30:48.730Z,18.69
2022-08-26T05:33:18.188Z,18.65
2022-08-26T05:35:48.774Z,18.90
2022-08-26T05:38:20.252Z,18.62
2022-08-26T05:40:52.576Z,19.11
2022-08-26T05:43:21.961Z,19.13
2022-08-26T05:45:52.006Z,19.20
2022-08-26T05:48:24.154Z,19.25
2022-08-26T05:50:54.957Z,19.27
2022-08-26T05:53:26.281Z,19.03
2022-08-26T05:55:56.227Z,19.32
2022-08-26T05:58:26.769Z,19.39
2022-08-26T06:01:00.685Z,19.43
2022-08-26T06:03:29.734Z,19.48
2022-08-26T06:05:59.582Z,19.53
2022-08-26T06:08:28.199Z,19.57
2022-08-26T06:11:01.438Z,19.61
2022-08-26T06:13:32.042Z,19.62
2022-08-26T06:16:02.016Z,19.45
2022-08-26T06:18:35.510Z,19.69
2022-08-26T06:21:15.230Z,19.71
2022-08-26T06:24:02.276Z,19.73
2022-08-26T06:26:31.836Z,19.76
2022-08-26T06:29:00.729Z,19.83
2022-08-26T06:31:34.508Z,19.85
2022-08-26T06:34:07.306Z,19.89
2022-08-26T06:36:43.922Z,19.94
2022-08-26T06:39:14.485Z,19.70
2022-08-26T06:41:43.875Z,19.90
2022-08-26T06:44:13.414Z,20.07
2022-08-26T06:46:43.002Z,20.08
2022-08-26T06:49:13.836Z,20.07
2022-08-26T06:51:47.244Z,20.14
2022-08-26T06:54:17.514Z,20.16
2022-08-26T06:56:45.949Z,20.21
2022-08-26T06:59:16.760Z,20.08
2022-08-26T07:01:46.834Z,20.25
2022-08-26T07:04:20.276Z,20.14
2022-08-26T07:06:54.186Z,19.89
2022-08-26T07:09:24.860Z,20.20
2022-08-26T07:11:55.589Z,20.37
2022-08-26T07:14:26.264Z,20.39
2022-08-26T07:16:55.667Z,20.41
2022-08-26T07:19:30.853Z,20.45
2022-08-26T07:22:04.158Z,20.50
2022-08-26T07:24:33.344Z,20.52
2022-08-26T07:27:05.847Z,20.58
2022-08-26T07:29:36.559Z,20.61
2022-08-26T07:32:06.025Z,20.66
2022-08-26T07:34:35.922Z,20.59
2022-08-26T07:37:08.878Z,20.73
2022-08-26T07:39:37.954Z,20.78
2022-08-26T07:42:10.796Z,20.90
2022-08-26T07:44:40.905Z,20.97
2022-08-26T07:47:24.951Z,21.01
2022-08-26T07:49:56.612Z,21.04
2022-08-26T07:52:29.897Z,21.05
2022-08-26T07:54:59.762Z,21.20
2022-08-26T07:57:29.275Z,21.25
2022-08-26T07:59:58.187Z,21.14
2022-08-26T08:02:28.994Z,21.34
2022-08-26T08:04:58.552Z,21.40
2022-08-26T08:07:45.040Z,21.46
2022-08-26T08:10:17.724Z,21.39
2022-08-26T08:12:47.249Z,21.51
2022-08-26T08:15:17.189Z,21.56
2022-08-26T08:17:45.736Z,21.62
2022-08-26T08:20:15.808Z,21.69
2022-08-26T08:22:46.418Z,21.74
2022-08-26T08:25:16.297Z,21.80
2022-08-26T08:27:47.139Z,21.71
2022-08-26T08:30:22.637Z,21.91
2022-08-26T08:32:51.725Z,21.61
2022-08-26T08:35:22.707Z,21.97
2022-08-26T08:37:54.921Z,22.01
2022-08-26T08:40:26.475Z,22.04
2022-08-26T08:43:00.344Z,22.11
2022-08-26T08:45:37.088Z,22.18
2022-08-26T08:48:08.143Z,22.20
2022-08-26T08:50:46.030Z,22.25
2022-08-26T08:53:19.322Z,22.32
2022-08-26T08:56:08.181Z,22.38
2022-08-26T08:58:51.981Z,22.50
2022-08-26T09:01:29.775Z,22.54
2022-08-26T09:04:17.223Z,22.68
2022-08-26T09:06:48.680Z,22.70
2022-08-26T09:09:25.989Z,22.65
2022-08-26T09:11:58.867Z,22.80
2022-08-26T09:14:28.447Z,22.85
2022-08-26T09:17:06.655Z,22.62
2022-08-26T09:19:44.152Z,22.93
2022-08-26T09:22:12.710Z,22.83
2022-08-26T09:24:48.216Z,23.00
2022-08-26T09:27:38.094Z,23.02
2022-08-26T09:30:08.385Z,23.03
2022-08-26T09:32:40.781Z,23.03
2022-08-26T09:35:12.348Z,23.02
2022-08-26T09:40:27.067Z,23.33
2022-08-26T09:43:22.434Z,23.34
2022-08-26T09:45:59.175Z,23.39
2022-08-26T09:48:31.265Z,23.47
2022-08-26T09:51:02.068Z,23.52
2022-08-26T09:53:34.530Z,23.63
2022-08-26T09:56:25.475Z,23.81
2022-08-26T09:58:57.130Z,23.73
2022-08-26T10:01:35.985Z,23.94
2022-08-26T10:04:08.164Z,23.98
2022-08-26T10:06:42.052Z,23.99
2022-08-26T10:09:15.162Z,23.95
2022-08-26T10:11:49.980Z,23.98
2022-08-26T10:14:24.536Z,23.13
2022-08-26T10:16:58.397Z,23.72
2022-08-26T10:19:43.118Z,24.31
2022-08-26T10:22:28.864Z,24.39
2022-08-26T10:25:02.764Z,24.45
2022-08-26T10:27:51.157Z,24.50
2022-08-26T10:30:24.783Z,24.46
2022-08-26T10:32:57.131Z,24.42
2022-08-26T10:35:27.548Z,24.49
2022-08-26T10:37:59.594Z,24.66
2022-08-26T10:40:32.404Z,24.86
2022-08-26T10:43:11.317Z,24.39
2022-08-26T10:45:45.363Z,25.06
2022-08-26T10:48:19.102Z,25.03
2022-08-26T10:50:50.277Z,25.10
2022-08-26T10:53:26.519Z,24.83
2022-08-26T10:56:04.725Z,25.29
2022-08-26T10:58:50.462Z,25.32
2022-08-26T11:01:46.984Z,25.18
2022-08-26T11:04:31.482Z,25.26
2022-08-26T11:07:39.309Z,25.16
2022-08-26T11:10:40.945Z,25.02
2022-08-26T11:13:10.172Z,24.99
2022-08-26T11:16:03.572Z,24.90
2022-08-26T11:18:44.822Z,24.77
2022-08-26T11:21:47.691Z,24.81
2022-08-26T11:25:02.461Z,24.79
2022-08-26T11:28:07.247Z,24.73
2022-08-26T11:30:57.478Z,24.70
2022-08-26T11:33:52.328Z,24.71
2022-08-26T11:36:58.442Z,24.73
2022-08-26T11:39:31.989Z,24.71
2022-08-26T11:42:21.016Z,24.75
2022-08-26T11:44:50.230Z,24.44
2022-08-26T11:47:29.312Z,24.65
2022-08-26T11:50:18.398Z,24.97
2022-08-26T11:52:55.412Z,25.04
2022-08-26T11:55:24.770Z,25.06
2022-08-26T11:57:57.362Z,25.18
2022-08-26T12:00:33.320Z,25.33
2022-08-26T12:03:06.443Z,25.16
2022-08-26T12:05:44.720Z,25.83
2022-08-26T12:08:16.495Z,25.95
2022-08-26T12:10:45.032Z,26.11
2022-08-26T12:13:23.783Z,26.29
2022-08-26T12:15:56.577Z,26.36
2022-08-26T12:18:29.555Z,26.46
2022-08-26T12:21:03.323Z,26.42
2022-08-26T12:23:43.261Z,26.30
2022-08-26T12:26:20.153Z,26.36
2022-08-26T12:28:51.963Z,26.26
2022-08-26T12:31:27.913Z,26.18
2022-08-26T12:33:59.329Z,26.15
2022-08-26T12:36:33.141Z,26.15
2022-08-26T12:39:10.557Z,26.19
2022-08-26T12:41:51.096Z,26.18
2022-08-26T12:44:53.621Z,26.14
2022-08-26T12:47:30.964Z,26.15
2022-08-26T12:50:17.709Z,26.21
2022-08-26T12:52:57.931Z,26.36
2022-08-26T12:55:35.542Z,26.02
2022-08-26T12:58:25.529Z,26.49
2022-08-26T13:00:56.229Z,26.42
2022-08-26T13:03:44.935Z,26.51
2022-08-26T13:06:29.870Z,26.63
2022-08-26T13:09:01.453Z,26.74
2022-08-26T13:11:32.041Z,26.81
2022-08-26T13:14:03.022Z,26.95
2022-08-26T13:16:36.713Z,27.09
2022-08-26T13:19:10.458Z,27.19
2022-08-26T13:21:45.285Z,27.22
2022-08-26T13:24:17.496Z,27.17
2022-08-26T13:26:47.637Z,26.97
2022-08-26T13:29:16.476Z,26.90
2022-08-26T13:31:46.894Z,26.76
2022-08-26T13:34:20.471Z,26.59
2022-08-26T13:36:49.832Z,26.42
2022-08-26T13:39:20.871Z,26.25
2022-08-26T13:41:50.229Z,25.97
2022-08-26T13:44:19.210Z,25.63
2022-08-26T13:46:47.693Z,25.38
2022-08-26T13:49:16.506Z,25.04
2022-08-26T13:51:45.241Z,24.56
2022-08-26T13:54:13.763Z,24.13
2022-08-26T13:56:43.814Z,23.88
2022-08-26T13:59:12.429Z,23.69
2022-08-26T14:01:41.452Z,23.62
2022-08-26T14:04:09.945Z,23.56
2022-08-26T14:06:38.580Z,23.52
2022-08-26T14:09:07.417Z,23.03
2022-08-26T14:11:54.042Z,23.61
2022-08-26T14:14:25.333Z,23.30
2022-08-26T14:16:59.154Z,22.68
2022-08-26T14:19:30.147Z,22.83
2022-08-26T14:22:01.005Z,22.20
2022-08-26T14:24:30.845Z,22.33
2022-08-26T14:27:00.050Z,22.13
2022-08-26T14:29:30.090Z,21.96
2022-08-26T14:31:59.856Z,21.81
2022-08-26T14:34:28.372Z,21.67
2022-08-26T14:36:56.800Z,21.46
2022-08-26T14:39:25.341Z,21.17
2022-08-26T14:41:57.729Z,21.08
2022-08-26T14:44:29.578Z,20.81
2022-08-26T14:47:02.381Z,20.78
2022-08-26T14:49:31.773Z,20.68
2022-08-26T14:52:00.744Z,20.65
2022-08-26T14:54:29.574Z,20.61
2022-08-26T14:57:01.160Z,20.29
2022-08-26T14:59:32.104Z,20.51
2022-08-26T15:02:02.399Z,20.52
2022-08-26T15:04:31.627Z,20.52
2022-08-26T15:07:01.631Z,19.98
2022-08-26T15:09:31.400Z,20.39
2022-08-26T15:12:00.113Z,20.37
2022-08-26T15:14:32.678Z,20.28
2022-08-26T15:17:02.934Z,20.27
2022-08-26T15:19:31.486Z,18.65
2022-08-26T15:22:00.540Z,20.23
2022-08-26T15:24:29.938Z,20.25
2022-08-26T15:26:58.738Z,20.25
2022-08-26T15:29:27.537Z,20.26
2022-08-26T15:31:57.603Z,19.42
2022-08-26T15:34:27.767Z,20.22
2022-08-26T15:36:56.576Z,20.22
2022-08-26T15:39:25.526Z,20.12
2022-08-26T15:41:56.248Z,20.12
2022-08-26T15:44:27.757Z,20.15
2022-08-26T15:46:58.802Z,19.76
2022-08-26T15:49:29.018Z,19.83
2022-08-26T15:51:58.253Z,18.88
2022-08-26T15:54:26.838Z,20.05
2022-08-26T15:56:55.369Z,20.01
2022-08-26T15:59:24.104Z,19.78
2022-08-26T16:01:52.790Z,19.97
2022-08-26T16:04:21.851Z,19.95
2022-08-26T16:06:52.363Z,19.67
2022-08-26T16:09:24.456Z,19.57
2022-08-26T16:11:53.208Z,19.64
2022-08-26T16:14:21.861Z,19.47
2022-08-26T16:16:50.726Z,19.63
2022-08-26T16:19:19.600Z,19.64
2022-08-26T16:21:48.461Z,19.64
2022-08-26T16:24:24.835Z,19.68
2022-08-26T16:26:54.691Z,19.39
2022-08-26T16:29:23.186Z,19.73
2022-08-26T16:31:53.436Z,19.55
2022-08-26T16:34:22.667Z,19.70
2022-08-26T16:36:51.152Z,19.69
2022-08-26T16:39:21.095Z,19.38
2022-08-26T16:41:49.478Z,19.63
2022-08-26T16:44:17.995Z,19.63
2022-08-26T16:46:46.946Z,19.64
2022-08-26T16:49:15.445Z,19.31
2022-08-26T16:51:43.984Z,19.03
2022-08-26T16:54:12.376Z,19.31
2022-08-26T16:56:42.627Z,19.54
2022-08-26T16:59:12.448Z,18.93
2022-08-26T17:01:41.030Z,19.49
2022-08-26T17:04:09.796Z,19.37
2022-08-26T17:06:38.650Z,19.31
2022-08-26T17:09:07.671Z,19.31
2022-08-26T17:11:36.682Z,19.28
2022-08-26T17:14:07.858Z,19.19
2022-08-26T17:16:36.741Z,18.62
2022-08-26T17:19:06.653Z,18.79
2022-08-26T17:21:37.265Z,19.12
2022-08-26T17:24:06.914Z,18.76
2022-08-26T17:26:36.092Z,19.03
2022-08-26T17:29:07.455Z,19.03
2022-08-26T17:31:35.984Z,19.03
2022-08-26T17:34:04.421Z,19.05
2022-08-26T17:36:33.461Z,18.70
2022-08-26T17:39:02.086Z,19.06
2022-08-26T17:41:30.642Z,19.08
2022-08-26T17:43:58.997Z,19.04
2022-08-26T17:46:29.377Z,19.04
2022-08-26T17:48:57.943Z,19.03
2022-08-26T17:51:26.975Z,18.87
2022-08-26T17:53:55.709Z,18.99
2022-08-26T17:56:26.763Z,18.99
2022-08-26T17:59:02.471Z,18.94
2022-08-26T18:01:34.217Z,18.94
2022-08-26T18:04:02.789Z,18.95
2022-08-26T18:06:31.947Z,18.50
2022-08-26T18:09:02.087Z,18.95
2022-08-26T18:11:33.677Z,18.69
2022-08-26T18:14:02.651Z,18.70
2022-08-26T18:16:32.229Z,18.94
2022-08-26T18:19:02.472Z,18.61
2022-08-26T18:21:31.361Z,18.88
2022-08-26T18:24:00.336Z,18.86
2022-08-26T18:26:30.694Z,18.87
2022-08-26T18:28:59.760Z,18.84
2022-08-26T18:31:28.545Z,18.84
2022-08-26T18:33:57.557Z,18.84
2022-08-26T18:36:30.256Z,18.79
2022-08-26T18:38:59.633Z,18.75
2022-08-26T18:41:32.173Z,18.75
2022-08-26T18:44:01.185Z,18.73
2022-08-26T18:46:29.897Z,18.71
2022-08-26T18:48:59.353Z,18.69
2022-08-26T18:51:31.080Z,18.66
2022-08-26T18:54:00.950Z,18.62
2022-08-26T18:56:29.916Z,18.30
2022-08-26T18:58:58.464Z,18.61
2022-08-26T19:01:27.878Z,18.58
2022-08-26T19:03:57.334Z,18.58
2022-08-26T19:06:27.392Z,18.14
2022-08-26T19:08:57.880Z,18.54
2022-08-26T19:11:32.637Z,18.54
2022-08-26T19:14:09.150Z,18.28
2022-08-26T19:16:38.989Z,18.54
2022-08-26T19:19:08.393Z,18.06
2022-08-26T19:21:38.629Z,18.50
2022-08-26T19:24:15.667Z,18.48
2022-08-26T19:26:45.361Z,18.08
2022-08-26T19:29:15.392Z,18.03
2022-08-26T19:31:44.615Z,18.27
2022-08-26T19:34:18.237Z,18.29
2022-08-26T19:36:49.572Z,18.47
2022-08-26T19:39:19.501Z,18.21
2022-08-26T19:41:48.683Z,18.18
2022-08-26T19:44:40.181Z,18.48
2022-08-26T19:47:10.173Z,18.47
2022-08-26T19:49:39.138Z,18.52
2022-08-26T19:52:07.917Z,18.48
2022-08-26T19:54:38.341Z,18.48
2022-08-26T19:57:08.082Z,18.49
2022-08-26T19:59:37.208Z,18.50
2022-08-26T20:02:10.881Z,18.50
2022-08-26T20:04:40.944Z,18.48
2022-08-26T20:07:12.912Z,18.48
2022-08-26T20:09:45.609Z,18.49
2022-08-26T20:12:16.122Z,18.51
2022-08-26T20:14:44.858Z,18.51
2022-08-26T20:17:13.401Z,18.33
2022-08-26T20:19:58.929Z,18.53
2022-08-26T20:22:28.326Z,18.35
2022-08-26T20:24:58.323Z,18.47
2022-08-26T20:27:34.707Z,18.46
2022-08-26T20:30:09.320Z,18.39
2022-08-26T20:32:38.890Z,18.47
2022-08-26T20:35:09.894Z,18.48
2022-08-26T20:37:39.973Z,18.46
2022-08-26T20:40:12.612Z,18.33
2022-08-26T20:42:41.308Z,18.48
2022-08-26T20:45:10.817Z,18.45
2022-08-26T20:47:39.421Z,18.49
2022-08-26T20:50:09.218Z,18.51
2022-08-26T20:52:37.706Z,18.53
2022-08-26T20:55:07.239Z,17.88
2022-08-26T20:57:37.522Z,18.37
2022-08-26T21:00:08.000Z,18.55
2022-08-26T21:02:37.155Z,18.54
2022-08-26T21:05:06.354Z,18.54
2022-08-26T21:07:35.000Z,18.20
2022-08-26T21:10:05.033Z,18.53
2022-08-26T21:12:33.441Z,18.52
2022-08-26T21:15:03.361Z,18.51
2022-08-26T21:17:31.837Z,18.53
2022-08-26T21:20:00.371Z,18.55
2022-08-26T21:22:30.262Z,18.59
2022-08-26T21:24:58.894Z,18.62
2022-08-26T21:27:27.849Z,18.64
2022-08-26T21:29:57.016Z,18.65
2022-08-26T21:32:27.986Z,18.37
2022-08-26T21:34:57.244Z,18.62
2022-08-26T21:37:27.484Z,18.61
2022-08-26T21:39:57.144Z,18.55
2022-08-26T21:42:26.700Z,18.38
2022-08-26T21:44:55.521Z,18.53
2022-08-26T21:47:24.789Z,18.51
2022-08-26T21:49:55.408Z,18.30
2022-08-26T21:52:23.866Z,18.46
2022-08-26T21:54:52.454Z,18.47
2022-08-26T21:57:20.971Z,18.45
2022-08-26T21:59:49.743Z,18.31
2022-08-26T22:02:18.267Z,18.45
2022-08-26T22:04:48.988Z,18.47
2022-08-26T22:07:21.765Z,18.30
2022-08-26T22:09:50.355Z,18.45
2022-08-26T22:12:19.558Z,18.49
2022-08-26T22:14:48.494Z,18.50
2022-08-26T22:17:17.162Z,18.48
2022-08-26T22:19:46.741Z,18.50
2022-08-26T22:22:15.833Z,18.41
2022-08-26T22:24:45.742Z,18.47
2022-08-26T22:27:15.189Z,18.45
2022-08-26T22:29:44.316Z,18.44
2022-08-26T22:32:12.905Z,18.42
2022-08-26T22:34:42.483Z,18.06
2022-08-26T22:37:10.956Z,18.34
2022-08-26T22:39:39.945Z,18.34
2022-08-26T22:42:09.872Z,18.34
2022-08-26T22:44:38.389Z,18.32
2022-08-26T22:47:07.748Z,18.30
2022-08-26T22:49:36.432Z,17.99
2022-08-26T22:52:05.337Z,18.27
2022-08-26T22:54:33.889Z,18.26
2022-08-26T22:57:02.511Z,17.86
2022-08-26T22:59:32.732Z,18.23
2022-08-26T23:02:01.189Z,17.86
2022-08-26T23:04:29.897Z,18.22
2022-08-26T23:06:58.501Z,18.23
2022-08-26T23:09:27.011Z,18.07
2022-08-26T23:11:56.764Z,18.24
2022-08-26T23:14:26.207Z,18.10
2022-08-26T23:16:56.193Z,18.22
2022-08-26T23:19:25.473Z,18.20
2022-08-26T23:21:54.064Z,17.96
2022-08-26T23:24:22.589Z,18.17
2022-08-26T23:26:51.490Z,17.98
2022-08-26T23:29:20.333Z,18.13
2022-08-26T23:31:48.899Z,18.09
2022-08-26T23:34:36.350Z,18.09
2022-08-26T23:37:06.757Z,18.09
2022-08-26T23:39:36.566Z,18.08
2022-08-26T23:42:07.054Z,18.08
2022-08-26T23:44:35.691Z,18.08
2022-08-26T23:47:05.081Z,18.08
2022-08-26T23:49:38.126Z,18.07
2022-08-26T23:52:24.382Z,18.06
2022-08-26T23:54:53.302Z,18.02
2022-08-26T23:57:24.759Z,17.99
2022-08-26T23:59:53.745Z,16.61
